^^
Saratoga-Weather Station Historical Data
Daily Summary for April 17, 2020 Units:  Both    English   Metric
Daily Weekly Monthly Yearly Custom
  High: Low: Average:
Temperature: 78.4 °F /  25.8 °C 61.3 °F /  16.3 °C 68.5 °F /  20.3 °C
Dew Point: 60.6 °F /  15.9 °C 46.6 °F /  8.1 °C 55.9 °F /  13.3 °C
Humidity: 85% 43% 65%
Wind Speed: 12mph /  19.3km/h - 2.3mph /  3.7km/h
Wind Gust: 13mph /  20.9km/h - -
Wind- - SSE
Pressure: 30.2 in /  1022.4 hPa 30.1 in /  1020.0 hPa -
Precipitation: 0 in /  0.0 mm    
Historical Graphs
 
 
Tabular Data for April 17, 2020
Time Temperature Dew Point Pressure Wind Wind Speed Wind Gust Humidity Rainfall Rate (Hourly) solar
00:00 70.5 °F /  21.4 °C 60.3 °F /  15.7 °C 30.1in /  1020.3hPa West 2mph /  3.2km/h 6mph /  9.7km/h 70% 0in /  0.0mm 0 W/m2
00:05 70.5 °F /  21.4 °C 60.3 °F /  15.7 °C 30.1in /  1020.3hPa WNW 2.9mph /  4.7km/h 7mph /  11.3km/h 70% 0in /  0.0mm 0 W/m2
00:10 70.5 °F /  21.4 °C 60.6 °F /  15.9 °C 30.1in /  1020.3hPa NNW 0.9mph /  1.4km/h 3mph /  4.8km/h 71% 0in /  0.0mm 0 W/m2
00:15 70.5 °F /  21.4 °C 60.6 °F /  15.9 °C 30.1in /  1020.3hPa West 0.9mph /  1.4km/h 4mph /  6.4km/h 71% 0in /  0.0mm 0 W/m2
00:21 70.3 °F /  21.3 °C 60.4 °F /  15.8 °C 30.1in /  1020.3hPa NW 2.9mph /  4.7km/h 5mph /  8km/h 71% 0in /  0.0mm 0 W/m2
00:26 70.3 °F /  21.3 °C 60.4 °F /  15.8 °C 30.1in /  1020.3hPa West 2.9mph /  4.7km/h 6mph /  9.7km/h 71% 0in /  0.0mm 0 W/m2
00:31 70.3 °F /  21.3 °C 60.4 °F /  15.8 °C 30.1in /  1020.3hPa WSW 4mph /  6.4km/h 6mph /  9.7km/h 71% 0in /  0.0mm 0 W/m2
00:36 70.3 °F /  21.3 °C 60.4 °F /  15.8 °C 30.1in /  1020.3hPa NNW 4mph /  6.4km/h 8mph /  12.9km/h 71% 0in /  0.0mm 0 W/m2
00:41 70.2 °F /  21.2 °C 60.3 °F /  15.7 °C 30.1in /  1020.3hPa West 2mph /  3.2km/h 5mph /  8km/h 71% 0in /  0.0mm 0 W/m2
00:46 70.2 °F /  21.2 °C 60.3 °F /  15.7 °C 30.1in /  1020.3hPa NW 4mph /  6.4km/h 8mph /  12.9km/h 71% 0in /  0.0mm 0 W/m2
00:51 70.2 °F /  21.2 °C 60.3 °F /  15.7 °C 30.1in /  1020.3hPa WNW 2.9mph /  4.7km/h 6mph /  9.7km/h 71% 0in /  0.0mm 0 W/m2
00:56 70 °F /  21.1 °C 60.1 °F /  15.6 °C 30.1in /  1020.3hPa WNW 4mph /  6.4km/h 9mph /  14.5km/h 71% 0in /  0.0mm 0 W/m2
01:01 70 °F /  21.1 °C 60.1 °F /  15.6 °C 30.1in /  1020.3hPa NNW 4.9mph /  7.9km/h 5mph /  8km/h 71% 0in /  0.0mm 0 W/m2
01:06 69.8 °F /  21 °C 59.9 °F /  15.5 °C 30.1in /  1020.3hPa SW 0.9mph /  1.4km/h 9mph /  14.5km/h 71% 0in /  0.0mm 0 W/m2
01:11 69.6 °F /  20.9 °C 60.3 °F /  15.7 °C 30.1in /  1020.3hPa WSW 4mph /  6.4km/h 4mph /  6.4km/h 72% 0in /  0.0mm 0 W/m2
01:16 69.6 °F /  20.9 °C 60.3 °F /  15.7 °C 30.1in /  1020.7hPa WNW 2.9mph /  4.7km/h 4mph /  6.4km/h 72% 0in /  0.0mm 0 W/m2
01:21 69.4 °F /  20.8 °C 60.1 °F /  15.6 °C 30.1in /  1020.7hPa WNW 2mph /  3.2km/h 2mph /  3.2km/h 72% 0in /  0.0mm 0 W/m2
01:26 69.3 °F /  20.7 °C 59.9 °F /  15.5 °C 30.1in /  1020.7hPa West 2mph /  3.2km/h 6mph /  9.7km/h 72% 0in /  0.0mm 0 W/m2
01:31 69.3 °F /  20.7 °C 60.3 °F /  15.7 °C 30.1in /  1020.7hPa NNW 0.9mph /  1.4km/h 2mph /  3.2km/h 73% 0in /  0.0mm 0 W/m2
01:36 69.1 °F /  20.6 °C 60.1 °F /  15.6 °C 30.1in /  1020.7hPa WNW 4mph /  6.4km/h 4mph /  6.4km/h 73% 0in /  0.0mm 0 W/m2
01:41 68.9 °F /  20.5 °C 59.9 °F /  15.5 °C 30.1in /  1020.7hPa WNW 2mph /  3.2km/h 4mph /  6.4km/h 73% 0in /  0.0mm 0 W/m2
01:46 68.7 °F /  20.4 °C 59.7 °F /  15.4 °C 30.1in /  1020.7hPa WNW 8.9mph /  14.3km/h 9mph /  14.5km/h 73% 0in /  0.0mm 0 W/m2
01:51 68.7 °F /  20.4 °C 59.7 °F /  15.4 °C 30.1in /  1020.7hPa NW 0.9mph /  1.4km/h 4mph /  6.4km/h 73% 0in /  0.0mm 0 W/m2
01:56 68.7 °F /  20.4 °C 59.7 °F /  15.4 °C 30.1in /  1020.7hPa WNW 2.9mph /  4.7km/h 8mph /  12.9km/h 73% 0in /  0.0mm 0 W/m2
02:01 68.5 °F /  20.3 °C 59.5 °F /  15.3 °C 30.1in /  1020.7hPa NNW 4mph /  6.4km/h 4mph /  6.4km/h 73% 0in /  0.0mm 0 W/m2
02:06 68.4 °F /  20.2 °C 59.4 °F /  15.2 °C 30.1in /  1020.7hPa North 6mph /  9.7km/h 6mph /  9.7km/h 73% 0in /  0.0mm 0 W/m2
02:11 68.2 °F /  20.1 °C 59.2 °F /  15.1 °C 30.1in /  1020.7hPa NE 2.9mph /  4.7km/h 5mph /  8km/h 73% 0in /  0.0mm 0 W/m2
02:16 68.2 °F /  20.1 °C 59.5 °F /  15.3 °C 30.1in /  1020.7hPa NE 0.9mph /  1.4km/h 2mph /  3.2km/h 74% 0in /  0.0mm 0 W/m2
02:21 67.8 °F /  19.9 °C 59.2 °F /  15.1 °C 30.1in /  1020.7hPa West 2mph /  3.2km/h 8mph /  12.9km/h 74% 0in /  0.0mm 0 W/m2
02:26 67.8 °F /  19.9 °C 59.2 °F /  15.1 °C 30.1in /  1020.7hPa Calm   6mph /  9.7km/h 74% 0in /  0.0mm 0 W/m2
02:31 67.6 °F /  19.8 °C 59 °F /  15 °C 30.1in /  1020.7hPa East 2mph /  3.2km/h 8mph /  12.9km/h 74% 0in /  0.0mm 0 W/m2
02:36 67.6 °F /  19.8 °C 59 °F /  15 °C 30.1in /  1020.7hPa ENE 2.9mph /  4.7km/h 6mph /  9.7km/h 74% 0in /  0.0mm 0 W/m2
02:41 67.5 °F /  19.7 °C 58.8 °F /  14.9 °C 30.1in /  1020.7hPa East 2mph /  3.2km/h 3mph /  4.8km/h 74% 0in /  0.0mm 0 W/m2
02:46 67.3 °F /  19.6 °C 58.6 °F /  14.8 °C 30.1in /  1020.7hPa NNW 0.9mph /  1.4km/h 3mph /  4.8km/h 74% 0in /  0.0mm 0 W/m2
02:51 67.1 °F /  19.5 °C 58.5 °F /  14.7 °C 30.1in /  1020.7hPa NE 2.9mph /  4.7km/h 3mph /  4.8km/h 74% 0in /  0.0mm 0 W/m2
02:56 66.9 °F /  19.4 °C 58.3 °F /  14.6 °C 30.1in /  1020.7hPa Calm   2mph /  3.2km/h 74% 0in /  0.0mm 0 W/m2
03:01 66.7 °F /  19.3 °C 58.1 °F /  14.5 °C 30.1in /  1020.7hPa NW 0.9mph /  1.4km/h 2mph /  3.2km/h 74% 0in /  0.0mm 0 W/m2
03:06 66.6 °F /  19.2 °C 58.1 °F /  14.5 °C 30.2in /  1021.0hPa Calm   7mph /  11.3km/h 74% 0in /  0.0mm 0 W/m2
03:11 66.6 °F /  19.2 °C 58.5 °F /  14.7 °C 30.2in /  1021.0hPa North 2mph /  3.2km/h 4mph /  6.4km/h 75% 0in /  0.0mm 0 W/m2
03:16 66.4 °F /  19.1 °C 58.3 °F /  14.6 °C 30.1in /  1020.7hPa ENE 8.1mph /  13km/h 8mph /  12.9km/h 75% 0in /  0.0mm 0 W/m2
03:21 66.2 °F /  19 °C 58.1 °F /  14.5 °C 30.2in /  1021.0hPa SSW 0.9mph /  1.4km/h 3mph /  4.8km/h 75% 0in /  0.0mm 0 W/m2
03:26 66 °F /  18.9 °C 57.9 °F /  14.4 °C 30.2in /  1021.0hPa ENE 2.9mph /  4.7km/h 4mph /  6.4km/h 75% 0in /  0.0mm 0 W/m2
03:31 65.8 °F /  18.8 °C 57.7 °F /  14.3 °C 30.2in /  1021.0hPa South 2mph /  3.2km/h 5mph /  8km/h 75% 0in /  0.0mm 0 W/m2
03:36 65.7 °F /  18.7 °C 57.6 °F /  14.2 °C 30.2in /  1021.0hPa WSW 0.9mph /  1.4km/h 2mph /  3.2km/h 75% 0in /  0.0mm 0 W/m2
03:41 65.7 °F /  18.7 °C 57.6 °F /  14.2 °C 30.2in /  1021.0hPa NNE 0.9mph /  1.4km/h 2mph /  3.2km/h 75% 0in /  0.0mm 0 W/m2
03:46 65.5 °F /  18.6 °C 57.4 °F /  14.1 °C 30.2in /  1021.0hPa NNW 0.9mph /  1.4km/h 4mph /  6.4km/h 75% 0in /  0.0mm 0 W/m2
03:51 65.5 °F /  18.6 °C 57.4 °F /  14.1 °C 30.2in /  1021.0hPa WSW 2mph /  3.2km/h 4mph /  6.4km/h 75% 0in /  0.0mm 0 W/m2
03:56 65.3 °F /  18.5 °C 57.2 °F /  14 °C 30.2in /  1021.0hPa WNW 2mph /  3.2km/h 3mph /  4.8km/h 75% 0in /  0.0mm 0 W/m2
04:01 65.1 °F /  18.4 °C 57.4 °F /  14.1 °C 30.2in /  1021.0hPa NNE 0.9mph /  1.4km/h 5mph /  8km/h 76% 0in /  0.0mm 0 W/m2
04:06 65.1 °F /  18.4 °C 57.4 °F /  14.1 °C 30.2in /  1021.0hPa NNW 0.9mph /  1.4km/h 5mph /  8km/h 76% 0in /  0.0mm 0 W/m2
04:11 64.9 °F /  18.3 °C 57.2 °F /  14 °C 30.1in /  1020.7hPa North 0.9mph /  1.4km/h 3mph /  4.8km/h 76% 0in /  0.0mm 0 W/m2
04:16 64.8 °F /  18.2 °C 57 °F /  13.9 °C 30.1in /  1020.7hPa WNW 0.9mph /  1.4km/h 4mph /  6.4km/h 76% 0in /  0.0mm 0 W/m2
04:21 64.8 °F /  18.2 °C 57 °F /  13.9 °C 30.1in /  1020.7hPa Calm   2mph /  3.2km/h 76% 0in /  0.0mm 0 W/m2
04:26 64.6 °F /  18.1 °C 56.8 °F /  13.8 °C 30.1in /  1020.7hPa NNW 2mph /  3.2km/h 2mph /  3.2km/h 76% 0in /  0.0mm 0 W/m2
04:32 64.2 °F /  17.9 °C 56.8 °F /  13.8 °C 30.1in /  1020.7hPa North 0.9mph /  1.4km/h 4mph /  6.4km/h 77% 0in /  0.0mm 0 W/m2
04:37 64.2 °F /  17.9 °C 56.8 °F /  13.8 °C 30.1in /  1020.7hPa WNW 4mph /  6.4km/h 7mph /  11.3km/h 77% 0in /  0.0mm 0 W/m2
04:42 64.2 °F /  17.9 °C 56.8 °F /  13.8 °C 30.1in /  1020.7hPa ENE 4mph /  6.4km/h 5mph /  8km/h 77% 0in /  0.0mm 0 W/m2
04:47 64 °F /  17.8 °C 56.7 °F /  13.7 °C 30.1in /  1020.7hPa SE 2mph /  3.2km/h 6mph /  9.7km/h 77% 0in /  0.0mm 0 W/m2
04:52 63.9 °F /  17.7 °C 56.8 °F /  13.8 °C 30.1in /  1020.7hPa SSW 4.9mph /  7.9km/h 5mph /  8km/h 78% 0in /  0.0mm 0 W/m2
04:57 63.9 °F /  17.7 °C 56.8 °F /  13.8 °C 30.2in /  1021.0hPa ESE 0.9mph /  1.4km/h 2mph /  3.2km/h 78% 0in /  0.0mm 0 W/m2
05:02 63.7 °F /  17.6 °C 56.7 °F /  13.7 °C 30.2in /  1021.0hPa North 4.9mph /  7.9km/h 5mph /  8km/h 78% 0in /  0.0mm 0 W/m2
05:07 63.5 °F /  17.5 °C 56.5 °F /  13.6 °C 30.2in /  1021.0hPa NW 0.9mph /  1.4km/h 6mph /  9.7km/h 78% 0in /  0.0mm 0 W/m2
05:12 63.3 °F /  17.4 °C 56.3 °F /  13.5 °C 30.2in /  1021.0hPa Calm   1mph /  1.6km/h 78% 0in /  0.0mm 0 W/m2
05:17 63.1 °F /  17.3 °C 56.5 °F /  13.6 °C 30.2in /  1021.0hPa SSW 2mph /  3.2km/h 2mph /  3.2km/h 79% 0in /  0.0mm 0 W/m2
05:23 63 °F /  17.2 °C 56.7 °F /  13.7 °C 30.2in /  1021.0hPa NNW 0.9mph /  1.4km/h 3mph /  4.8km/h 80% 0in /  0.0mm 0 W/m2
05:28 62.8 °F /  17.1 °C 56.5 °F /  13.6 °C 30.2in /  1021.0hPa NNE 4mph /  6.4km/h 4mph /  6.4km/h 80% 0in /  0.0mm 0 W/m2
05:33 62.8 °F /  17.1 °C 56.5 °F /  13.6 °C 30.2in /  1021.0hPa SSE 2mph /  3.2km/h 2mph /  3.2km/h 80% 0in /  0.0mm 0 W/m2
05:38 62.6 °F /  17 °C 56.7 °F /  13.7 °C 30.2in /  1021.0hPa Calm   3mph /  4.8km/h 81% 0in /  0.0mm 0 W/m2
05:43 62.4 °F /  16.9 °C 56.5 °F /  13.6 °C 30.2in /  1021.0hPa WSW 2.9mph /  4.7km/h 3mph /  4.8km/h 81% 0in /  0.0mm 0 W/m2
05:48 62.4 °F /  16.9 °C 56.5 °F /  13.6 °C 30.2in /  1021.0hPa West 0.9mph /  1.4km/h 2mph /  3.2km/h 81% 0in /  0.0mm 0 W/m2
05:53 62.2 °F /  16.8 °C 56.3 °F /  13.5 °C 30.2in /  1021.3hPa ENE 0.9mph /  1.4km/h 3mph /  4.8km/h 81% 0in /  0.0mm 0 W/m2
05:58 62.2 °F /  16.8 °C 56.7 °F /  13.7 °C 30.2in /  1021.3hPa NW 0.9mph /  1.4km/h 4mph /  6.4km/h 82% 0in /  0.0mm 0 W/m2
06:03 62.1 °F /  16.7 °C 56.5 °F /  13.6 °C 30.2in /  1021.3hPa WNW 2.9mph /  4.7km/h 3mph /  4.8km/h 82% 0in /  0.0mm 0 W/m2
06:08 62.1 °F /  16.7 °C 56.5 °F /  13.6 °C 30.2in /  1021.3hPa NNW 0.9mph /  1.4km/h 2mph /  3.2km/h 82% 0in /  0.0mm 0 W/m2
06:13 62.1 °F /  16.7 °C 56.5 °F /  13.6 °C 30.2in /  1021.3hPa West 2mph /  3.2km/h 3mph /  4.8km/h 82% 0in /  0.0mm 0 W/m2
06:18 61.9 °F /  16.6 °C 56.7 °F /  13.7 °C 30.2in /  1021.3hPa WNW 2mph /  3.2km/h 2mph /  3.2km/h 83% 0in /  0.0mm 0 W/m2
06:23 61.9 °F /  16.6 °C 56.7 °F /  13.7 °C 30.2in /  1021.3hPa Calm   3mph /  4.8km/h 83% 0in /  0.0mm 0 W/m2
06:28 61.9 °F /  16.6 °C 56.7 °F /  13.7 °C 30.2in /  1021.3hPa North 0.9mph /  1.4km/h 1mph /  1.6km/h 83% 0in /  0.0mm 0 W/m2
06:33 61.7 °F /  16.5 °C 56.5 °F /  13.6 °C 30.2in /  1021.7hPa ESE 4.9mph /  7.9km/h 6mph /  9.7km/h 83% 0in /  0.0mm 0 W/m2
06:38 61.7 °F /  16.5 °C 56.5 °F /  13.6 °C 30.2in /  1021.7hPa NE 0.9mph /  1.4km/h 2mph /  3.2km/h 83% 0in /  0.0mm 0 W/m2
06:43 61.7 °F /  16.5 °C 56.8 °F /  13.8 °C 30.2in /  1021.7hPa West 4mph /  6.4km/h 4mph /  6.4km/h 84% 0in /  0.0mm 0 W/m2
06:48 61.5 °F /  16.4 °C 56.7 °F /  13.7 °C 30.2in /  1021.7hPa ENE 4mph /  6.4km/h 6mph /  9.7km/h 84% 0in /  0.0mm 0 W/m2
06:53 61.5 °F /  16.4 °C 56.7 °F /  13.7 °C 30.2in /  1021.7hPa North 0.9mph /  1.4km/h 7mph /  11.3km/h 84% 0in /  0.0mm 0 W/m2
06:58 61.5 °F /  16.4 °C 56.7 °F /  13.7 °C 30.2in /  1021.7hPa NNW 2mph /  3.2km/h 3mph /  4.8km/h 84% 0in /  0.0mm 0 W/m2
07:03 61.5 °F /  16.4 °C 56.7 °F /  13.7 °C 30.2in /  1022.0hPa WNW 2.9mph /  4.7km/h 5mph /  8km/h 84% 0in /  0.0mm 0 W/m2
07:08 61.3 °F /  16.3 °C 56.5 °F /  13.6 °C 30.2in /  1021.7hPa Calm   3mph /  4.8km/h 84% 0in /  0.0mm 0 W/m2
07:13 61.3 °F /  16.3 °C 56.5 °F /  13.6 °C 30.2in /  1021.7hPa NE 2mph /  3.2km/h 2mph /  3.2km/h 84% 0in /  0.0mm 0 W/m2
07:18 61.3 °F /  16.3 °C 56.8 °F /  13.8 °C 30.2in /  1021.7hPa Calm   4mph /  6.4km/h 85% 0in /  0.0mm 5 W/m2
07:23 61.3 °F /  16.3 °C 56.8 °F /  13.8 °C 30.2in /  1022.0hPa WNW 2.9mph /  4.7km/h 3mph /  4.8km/h 85% 0in /  0.0mm 9 W/m2
07:29 61.3 °F /  16.3 °C 56.8 °F /  13.8 °C 30.2in /  1022.0hPa ENE 2mph /  3.2km/h 6mph /  9.7km/h 85% 0in /  0.0mm 11 W/m2
07:34 61.3 °F /  16.3 °C 56.8 °F /  13.8 °C 30.2in /  1022.0hPa North 0.9mph /  1.4km/h 6mph /  9.7km/h 85% 0in /  0.0mm 12 W/m2
07:39 61.5 °F /  16.4 °C 57 °F /  13.9 °C 30.2in /  1022.0hPa WNW 2mph /  3.2km/h 5mph /  8km/h 85% 0in /  0.0mm 16 W/m2
07:44 61.5 °F /  16.4 °C 56.7 °F /  13.7 °C 30.2in /  1022.0hPa North 6mph /  9.7km/h 9mph /  14.5km/h 84% 0in /  0.0mm 18 W/m2
07:49 61.5 °F /  16.4 °C 56.7 °F /  13.7 °C 30.2in /  1022.0hPa West 0.9mph /  1.4km/h 3mph /  4.8km/h 84% 0in /  0.0mm 21 W/m2
07:54 61.5 °F /  16.4 °C 56.7 °F /  13.7 °C 30.2in /  1022.0hPa ESE 2.9mph /  4.7km/h 9mph /  14.5km/h 84% 0in /  0.0mm 23 W/m2
07:59 61.7 °F /  16.5 °C 56.8 °F /  13.8 °C 30.2in /  1022.0hPa SW 4mph /  6.4km/h 5mph /  8km/h 84% 0in /  0.0mm 25 W/m2
08:04 61.9 °F /  16.6 °C 57 °F /  13.9 °C 30.2in /  1022.0hPa East 2mph /  3.2km/h 9mph /  14.5km/h 84% 0in /  0.0mm 26 W/m2
08:09 61.9 °F /  16.6 °C 56.7 °F /  13.7 °C 30.2in /  1022.0hPa East 0.9mph /  1.4km/h 3mph /  4.8km/h 83% 0in /  0.0mm 28 W/m2
08:14 61.9 °F /  16.6 °C 56.7 °F /  13.7 °C 30.2in /  1022.0hPa SSW 0.9mph /  1.4km/h 3mph /  4.8km/h 83% 0in /  0.0mm 30 W/m2
08:19 61.9 °F /  16.6 °C 56.7 °F /  13.7 °C 30.2in /  1022.0hPa North 2.9mph /  4.7km/h 4mph /  6.4km/h 83% 0in /  0.0mm 33 W/m2
08:24 62.1 °F /  16.7 °C 56.8 °F /  13.8 °C 30.2in /  1022.0hPa NW 0.9mph /  1.4km/h 2mph /  3.2km/h 83% 0in /  0.0mm 44 W/m2
08:29 62.1 °F /  16.7 °C 56.8 °F /  13.8 °C 30.2in /  1022.0hPa East 4mph /  6.4km/h 6mph /  9.7km/h 83% 0in /  0.0mm 69 W/m2
08:34 62.1 °F /  16.7 °C 56.8 °F /  13.8 °C 30.2in /  1022.4hPa WNW 0.9mph /  1.4km/h 3mph /  4.8km/h 83% 0in /  0.0mm 84 W/m2
08:39 62.1 °F /  16.7 °C 56.5 °F /  13.6 °C 30.2in /  1022.0hPa WSW 2.9mph /  4.7km/h 3mph /  4.8km/h 82% 0in /  0.0mm 95 W/m2
08:45 62.2 °F /  16.8 °C 56.7 °F /  13.7 °C 30.2in /  1022.4hPa ESE 2.9mph /  4.7km/h 4mph /  6.4km/h 82% 0in /  0.0mm 51 W/m2
08:50 62.2 °F /  16.8 °C 56.7 °F /  13.7 °C 30.2in /  1022.4hPa WNW 2mph /  3.2km/h 3mph /  4.8km/h 82% 0in /  0.0mm 47 W/m2
08:55 62.2 °F /  16.8 °C 56.3 °F /  13.5 °C 30.2in /  1022.4hPa North 0.9mph /  1.4km/h 3mph /  4.8km/h 81% 0in /  0.0mm 137 W/m2
09:00 62.4 °F /  16.9 °C 56.5 °F /  13.6 °C 30.2in /  1022.4hPa West 2mph /  3.2km/h 10mph /  16.1km/h 81% 0in /  0.0mm 153 W/m2
09:05 62.6 °F /  17 °C 56.7 °F /  13.7 °C 30.2in /  1022.4hPa WNW 2.9mph /  4.7km/h 6mph /  9.7km/h 81% 0in /  0.0mm 165 W/m2
09:10 62.8 °F /  17.1 °C 56.5 °F /  13.6 °C 30.2in /  1022.4hPa ESE 6.9mph /  11.1km/h 7mph /  11.3km/h 80% 0in /  0.0mm 179 W/m2
09:15 63 °F /  17.2 °C 56.7 °F /  13.7 °C 30.2in /  1022.4hPa SE 2mph /  3.2km/h 5mph /  8km/h 80% 0in /  0.0mm 130 W/m2
09:20 63.1 °F /  17.3 °C 56.5 °F /  13.6 °C 30.2in /  1022.4hPa NNW 2.9mph /  4.7km/h 6mph /  9.7km/h 79% 0in /  0.0mm 54 W/m2
09:25 63.3 °F /  17.4 °C 56.7 °F /  13.7 °C 30.2in /  1022.4hPa ESE 0.9mph /  1.4km/h 4mph /  6.4km/h 79% 0in /  0.0mm 54 W/m2
09:30 63.9 °F /  17.7 °C 56.8 °F /  13.8 °C 30.2in /  1022.4hPa NE 2mph /  3.2km/h 7mph /  11.3km/h 78% 0in /  0.0mm 54 W/m2
09:35 64.2 °F /  17.9 °C 56.8 °F /  13.8 °C 30.2in /  1022.4hPa ESE 2.9mph /  4.7km/h 5mph /  8km/h 77% 0in /  0.0mm 56 W/m2
09:40 64.4 °F /  18 °C 56.7 °F /  13.7 °C 30.2in /  1022.4hPa East 2.9mph /  4.7km/h 8mph /  12.9km/h 76% 0in /  0.0mm 56 W/m2
09:45 64.6 °F /  18.1 °C 56.8 °F /  13.8 °C 30.2in /  1022.4hPa SE 2.9mph /  4.7km/h 5mph /  8km/h 76% 0in /  0.0mm 56 W/m2
09:51 64.9 °F /  18.3 °C 57.2 °F /  14 °C 30.2in /  1022.4hPa East 2.9mph /  4.7km/h 4mph /  6.4km/h 76% 0in /  0.0mm 58 W/m2
09:56 65.1 °F /  18.4 °C 56.7 °F /  13.7 °C 30.2in /  1022.4hPa NW 2mph /  3.2km/h 5mph /  8km/h 74% 0in /  0.0mm 58 W/m2
10:01 65.3 °F /  18.5 °C 56.5 °F /  13.6 °C 30.2in /  1022.4hPa South 2mph /  3.2km/h 8mph /  12.9km/h 73% 0in /  0.0mm 58 W/m2
10:06 65.3 °F /  18.5 °C 56.5 °F /  13.6 °C 30.2in /  1022.4hPa Calm   2mph /  3.2km/h 73% 0in /  0.0mm 58 W/m2
10:11 65.5 °F /  18.6 °C 56.7 °F /  13.7 °C 30.2in /  1022.4hPa NE 2mph /  3.2km/h 6mph /  9.7km/h 73% 0in /  0.0mm 60 W/m2
10:16 65.7 °F /  18.7 °C 56.3 °F /  13.5 °C 30.2in /  1022.4hPa SE 2mph /  3.2km/h 4mph /  6.4km/h 72% 0in /  0.0mm 62 W/m2
10:21 65.8 °F /  18.8 °C 56.5 °F /  13.6 °C 30.2in /  1022.4hPa SE 2.9mph /  4.7km/h 8mph /  12.9km/h 72% 0in /  0.0mm 62 W/m2
10:26 65.8 °F /  18.8 °C 56.5 °F /  13.6 °C 30.2in /  1022.4hPa NW 0.9mph /  1.4km/h 3mph /  4.8km/h 72% 0in /  0.0mm 62 W/m2
10:31 66 °F /  18.9 °C 56.7 °F /  13.7 °C 30.2in /  1022.4hPa North 0.9mph /  1.4km/h 3mph /  4.8km/h 72% 0in /  0.0mm 62 W/m2
10:36 66.6 °F /  19.2 °C 56.8 °F /  13.8 °C 30.2in /  1022.4hPa East 4mph /  6.4km/h 11mph /  17.7km/h 71% 0in /  0.0mm 63 W/m2
10:41 66.7 °F /  19.3 °C 56.7 °F /  13.7 °C 30.2in /  1022.4hPa East 6.9mph /  11.1km/h 12mph /  19.3km/h 70% 0in /  0.0mm 63 W/m2
10:46 66.7 °F /  19.3 °C 56.7 °F /  13.7 °C 30.2in /  1022.4hPa ENE 4mph /  6.4km/h 8mph /  12.9km/h 70% 0in /  0.0mm 63 W/m2
10:51 66.7 °F /  19.3 °C 56.7 °F /  13.7 °C 30.2in /  1022.4hPa WNW 2mph /  3.2km/h 5mph /  8km/h 70% 0in /  0.0mm 63 W/m2
10:56 66.9 °F /  19.4 °C 56.8 °F /  13.8 °C 30.2in /  1022.4hPa ENE 2mph /  3.2km/h 10mph /  16.1km/h 70% 0in /  0.0mm 65 W/m2
11:01 67.1 °F /  19.5 °C 56.7 °F /  13.7 °C 30.2in /  1022.4hPa SSW 2mph /  3.2km/h 6mph /  9.7km/h 69% 0in /  0.0mm 67 W/m2
11:06 67.3 °F /  19.6 °C 56.8 °F /  13.8 °C 30.2in /  1022.4hPa NW 2mph /  3.2km/h 5mph /  8km/h 69% 0in /  0.0mm 69 W/m2
11:11 67.5 °F /  19.7 °C 57 °F /  13.9 °C 30.2in /  1022.4hPa North 0.9mph /  1.4km/h 3mph /  4.8km/h 69% 0in /  0.0mm 72 W/m2
11:16 67.6 °F /  19.8 °C 56.7 °F /  13.7 °C 30.2in /  1022.4hPa West 2mph /  3.2km/h 5mph /  8km/h 68% 0in /  0.0mm 74 W/m2
11:21 67.8 °F /  19.9 °C 56.8 °F /  13.8 °C 30.2in /  1022.4hPa East 4mph /  6.4km/h 5mph /  8km/h 68% 0in /  0.0mm 76 W/m2
11:26 68.2 °F /  20.1 °C 57.2 °F /  14 °C 30.2in /  1022.4hPa North 6mph /  9.7km/h 12mph /  19.3km/h 68% 0in /  0.0mm 77 W/m2
11:31 68.4 °F /  20.2 °C 57 °F /  13.9 °C 30.2in /  1022.4hPa East 2.9mph /  4.7km/h 6mph /  9.7km/h 67% 0in /  0.0mm 81 W/m2
11:36 68.5 °F /  20.3 °C 56.7 °F /  13.7 °C 30.2in /  1022.4hPa East 0.9mph /  1.4km/h 4mph /  6.4km/h 66% 0in /  0.0mm 83 W/m2
11:41 69.1 °F /  20.6 °C 57.2 °F /  14 °C 30.2in /  1022.4hPa NE 2.9mph /  4.7km/h 7mph /  11.3km/h 66% 0in /  0.0mm 188 W/m2
11:46 69.4 °F /  20.8 °C 57.2 °F /  14 °C 30.2in /  1022.4hPa SE 2mph /  3.2km/h 10mph /  16.1km/h 65% 0in /  0.0mm 531 W/m2
11:51 69.6 °F /  20.9 °C 57.4 °F /  14.1 °C 30.2in /  1022.4hPa East 6mph /  9.7km/h 6mph /  9.7km/h 65% 0in /  0.0mm 555 W/m2
11:56 70 °F /  21.1 °C 57.2 °F /  14 °C 30.2in /  1022.4hPa East 2.9mph /  4.7km/h 10mph /  16.1km/h 64% 0in /  0.0mm 559 W/m2
12:01 70.3 °F /  21.3 °C 57.6 °F /  14.2 °C 30.2in /  1022.0hPa NE 6mph /  9.7km/h 6mph /  9.7km/h 64% 0in /  0.0mm 564 W/m2
12:06 70.5 °F /  21.4 °C 57.4 °F /  14.1 °C 30.2in /  1022.4hPa SSW 0.9mph /  1.4km/h 8mph /  12.9km/h 63% 0in /  0.0mm 573 W/m2
12:12 70.9 °F /  21.6 °C 57.7 °F /  14.3 °C 30.2in /  1022.0hPa East 4mph /  6.4km/h 6mph /  9.7km/h 63% 0in /  0.0mm 580 W/m2
12:17 71.2 °F /  21.8 °C 57.6 °F /  14.2 °C 30.2in /  1022.0hPa NE 2.9mph /  4.7km/h 3mph /  4.8km/h 62% 0in /  0.0mm 584 W/m2
12:22 71.4 °F /  21.9 °C 57.7 °F /  14.3 °C 30.2in /  1022.0hPa SSE 2mph /  3.2km/h 8mph /  12.9km/h 62% 0in /  0.0mm 589 W/m2
12:27 71.6 °F /  22 °C 57.4 °F /  14.1 °C 30.2in /  1021.7hPa ENE 2.9mph /  4.7km/h 6mph /  9.7km/h 61% 0in /  0.0mm 596 W/m2
12:32 72 °F /  22.2 °C 57.4 °F /  14.1 °C 30.2in /  1022.0hPa ENE 2mph /  3.2km/h 3mph /  4.8km/h 60% 0in /  0.0mm 596 W/m2
12:37 72.1 °F /  22.3 °C 57.6 °F /  14.2 °C 30.2in /  1022.0hPa SE 2.9mph /  4.7km/h 7mph /  11.3km/h 60% 0in /  0.0mm 598 W/m2
12:42 72.5 °F /  22.5 °C 57.7 °F /  14.3 °C 30.2in /  1022.0hPa NNE 0.9mph /  1.4km/h 6mph /  9.7km/h 60% 0in /  0.0mm 598 W/m2
12:47 72.7 °F /  22.6 °C 57.6 °F /  14.2 °C 30.2in /  1021.7hPa SSE 0.9mph /  1.4km/h 2mph /  3.2km/h 59% 0in /  0.0mm 603 W/m2
12:52 73 °F /  22.8 °C 57.4 °F /  14.1 °C 30.2in /  1021.7hPa ESE 2.9mph /  4.7km/h 4mph /  6.4km/h 58% 0in /  0.0mm 621 W/m2
12:57 73.2 °F /  22.9 °C 57.6 °F /  14.2 °C 30.2in /  1021.7hPa East 0.9mph /  1.4km/h 2mph /  3.2km/h 58% 0in /  0.0mm 628 W/m2
13:02 73.6 °F /  23.1 °C 57.4 °F /  14.1 °C 30.2in /  1021.7hPa SE 4mph /  6.4km/h 7mph /  11.3km/h 57% 0in /  0.0mm 633 W/m2
13:07 73.6 °F /  23.1 °C 57.9 °F /  14.4 °C 30.2in /  1021.7hPa Calm   4mph /  6.4km/h 58% 0in /  0.0mm 635 W/m2
13:12 73.9 °F /  23.3 °C 57.7 °F /  14.3 °C 30.2in /  1021.7hPa NE 2mph /  3.2km/h 6mph /  9.7km/h 57% 0in /  0.0mm 640 W/m2
13:17 74.3 °F /  23.5 °C 57.6 °F /  14.2 °C 30.2in /  1021.7hPa SE 2mph /  3.2km/h 4mph /  6.4km/h 56% 0in /  0.0mm 647 W/m2
13:22 74.5 °F /  23.6 °C 57.7 °F /  14.3 °C 30.2in /  1021.3hPa WNW 2mph /  3.2km/h 3mph /  4.8km/h 56% 0in /  0.0mm 647 W/m2
13:27 74.8 °F /  23.8 °C 57.6 °F /  14.2 °C 30.2in /  1021.7hPa ENE 0.9mph /  1.4km/h 3mph /  4.8km/h 55% 0in /  0.0mm 650 W/m2
13:32 74.8 °F /  23.8 °C 57 °F /  13.9 °C 30.2in /  1021.7hPa ENE 6.9mph /  11.1km/h 11mph /  17.7km/h 54% 0in /  0.0mm 656 W/m2
13:37 74.8 °F /  23.8 °C 57.6 °F /  14.2 °C 30.2in /  1021.3hPa NE 2.9mph /  4.7km/h 6mph /  9.7km/h 55% 0in /  0.0mm 659 W/m2
13:42 74.8 °F /  23.8 °C 57.6 °F /  14.2 °C 30.2in /  1021.3hPa East 2mph /  3.2km/h 11mph /  17.7km/h 55% 0in /  0.0mm 654 W/m2
13:47 74.8 °F /  23.8 °C 57 °F /  13.9 °C 30.2in /  1021.3hPa NW 4mph /  6.4km/h 5mph /  8km/h 54% 0in /  0.0mm 654 W/m2
13:52 75 °F /  23.9 °C 56.7 °F /  13.7 °C 30.2in /  1021.3hPa South 0.9mph /  1.4km/h 10mph /  16.1km/h 53% 0in /  0.0mm 652 W/m2
13:57 75.2 °F /  24 °C 56.8 °F /  13.8 °C 30.2in /  1021.3hPa WNW 0.9mph /  1.4km/h 1mph /  1.6km/h 53% 0in /  0.0mm 652 W/m2
14:02 75.6 °F /  24.2 °C 57.2 °F /  14 °C 30.2in /  1021.7hPa SW 2mph /  3.2km/h 9mph /  14.5km/h 53% 0in /  0.0mm 654 W/m2
14:07 75.6 °F /  24.2 °C 56.7 °F /  13.7 °C 30.2in /  1021.3hPa SSE 4.9mph /  7.9km/h 5mph /  8km/h 52% 0in /  0.0mm 650 W/m2
14:12 75.7 °F /  24.3 °C 57.4 °F /  14.1 °C 30.2in /  1021.3hPa ENE 4.9mph /  7.9km/h 5mph /  8km/h 53% 0in /  0.0mm 654 W/m2
14:17 76.1 °F /  24.5 °C 57.2 °F /  14 °C 30.2in /  1021.3hPa NE 4.9mph /  7.9km/h 10mph /  16.1km/h 52% 0in /  0.0mm 650 W/m2
14:22 76.3 °F /  24.6 °C 56.8 °F /  13.8 °C 30.2in /  1021.3hPa NE 2.9mph /  4.7km/h 7mph /  11.3km/h 51% 0in /  0.0mm 647 W/m2
14:27 76.3 °F /  24.6 °C 56.8 °F /  13.8 °C 30.2in /  1021.3hPa ENE 2mph /  3.2km/h 4mph /  6.4km/h 51% 0in /  0.0mm 640 W/m2
14:32 76.1 °F /  24.5 °C 57.2 °F /  14 °C 30.2in /  1021.3hPa NW 0.9mph /  1.4km/h 8mph /  12.9km/h 52% 0in /  0.0mm 638 W/m2
14:37 76.5 °F /  24.7 °C 56.5 °F /  13.6 °C 30.2in /  1021.3hPa WSW 2mph /  3.2km/h 3mph /  4.8km/h 50% 0in /  0.0mm 638 W/m2
14:42 76.5 °F /  24.7 °C 56.5 °F /  13.6 °C 30.2in /  1021.3hPa NE 2.9mph /  4.7km/h 5mph /  8km/h 50% 0in /  0.0mm 635 W/m2
14:47 76.3 °F /  24.6 °C 56.8 °F /  13.8 °C 30.2in /  1021.0hPa NNW 2.9mph /  4.7km/h 7mph /  11.3km/h 51% 0in /  0.0mm 631 W/m2
14:52 76.6 °F /  24.8 °C 57.2 °F /  14 °C 30.2in /  1021.0hPa NNW 0.9mph /  1.4km/h 2mph /  3.2km/h 51% 0in /  0.0mm 624 W/m2
14:57 76.8 °F /  24.9 °C 56.8 °F /  13.8 °C 30.2in /  1021.0hPa NE 4mph /  6.4km/h 9mph /  14.5km/h 50% 0in /  0.0mm 619 W/m2
15:02 77.2 °F /  25.1 °C 56.5 °F /  13.6 °C 30.2in /  1021.0hPa ENE 4mph /  6.4km/h 5mph /  8km/h 49% 0in /  0.0mm 617 W/m2
15:07 77.4 °F /  25.2 °C 56.7 °F /  13.7 °C 30.2in /  1021.0hPa NNW 2.9mph /  4.7km/h 9mph /  14.5km/h 49% 0in /  0.0mm 608 W/m2
15:12 77.2 °F /  25.1 °C 56.5 °F /  13.6 °C 30.2in /  1021.0hPa NNE 0.9mph /  1.4km/h 5mph /  8km/h 49% 0in /  0.0mm 603 W/m2
15:17 77.2 °F /  25.1 °C 57 °F /  13.9 °C 30.1in /  1020.7hPa NNE 2mph /  3.2km/h 6mph /  9.7km/h 50% 0in /  0.0mm 596 W/m2
15:27 77.4 °F /  25.2 °C 56.7 °F /  13.7 °C 30.1in /  1020.7hPa NW 0.9mph /  1.4km/h 4mph /  6.4km/h 49% 0in /  0.0mm 584 W/m2
15:32 77.5 °F /  25.3 °C 56.3 °F /  13.5 °C 30.1in /  1020.7hPa North 12mph /  19.3km/h 12mph /  19.3km/h 48% 0in /  0.0mm 580 W/m2
15:37 77.5 °F /  25.3 °C 56.3 °F /  13.5 °C 30.1in /  1020.7hPa ESE 2.9mph /  4.7km/h 5mph /  8km/h 48% 0in /  0.0mm 577 W/m2
15:42 77.5 °F /  25.3 °C 56.8 °F /  13.8 °C 30.1in /  1020.7hPa ESE 2.9mph /  4.7km/h 11mph /  17.7km/h 49% 0in /  0.0mm 566 W/m2
15:47 77.5 °F /  25.3 °C 56.8 °F /  13.8 °C 30.1in /  1020.7hPa North 2.9mph /  4.7km/h 5mph /  8km/h 49% 0in /  0.0mm 557 W/m2
15:52 78.1 °F /  25.6 °C 56.8 °F /  13.8 °C 30.1in /  1020.7hPa ESE 4mph /  6.4km/h 4mph /  6.4km/h 48% 0in /  0.0mm 548 W/m2
15:57 78.1 °F /  25.6 °C 56.3 °F /  13.5 °C 30.1in /  1020.7hPa East 4mph /  6.4km/h 6mph /  9.7km/h 47% 0in /  0.0mm 540 W/m2
16:02 78.3 °F /  25.7 °C 56.3 °F /  13.5 °C 30.1in /  1020.7hPa East 4mph /  6.4km/h 5mph /  8km/h 47% 0in /  0.0mm 534 W/m2
16:07 78.4 °F /  25.8 °C 56.5 °F /  13.6 °C 30.1in /  1020.7hPa Calm   6mph /  9.7km/h 47% 0in /  0.0mm 526 W/m2
16:12 78.3 °F /  25.7 °C 55.8 °F /  13.2 °C 30.1in /  1020.3hPa NE 4mph /  6.4km/h 10mph /  16.1km/h 46% 0in /  0.0mm 515 W/m2
16:17 77.5 °F /  25.3 °C 55 °F /  12.8 °C 30.1in /  1020.3hPa NE 4.9mph /  7.9km/h 10mph /  16.1km/h 46% 0in /  0.0mm 499 W/m2
16:23 77.5 °F /  25.3 °C 55 °F /  12.8 °C 30.1in /  1020.3hPa ESE 4mph /  6.4km/h 9mph /  14.5km/h 46% 0in /  0.0mm 489 W/m2
16:28 77.5 °F /  25.3 °C 55 °F /  12.8 °C 30.1in /  1020.3hPa ENE 4.9mph /  7.9km/h 8mph /  12.9km/h 46% 0in /  0.0mm 476 W/m2
16:33 77.4 °F /  25.2 °C 55 °F /  12.8 °C 30.1in /  1020.3hPa NE 0.9mph /  1.4km/h 3mph /  4.8km/h 46% 0in /  0.0mm 466 W/m2
16:38 77.4 °F /  25.2 °C 54.3 °F /  12.4 °C 30.1in /  1020.3hPa ESE 2.9mph /  4.7km/h 13mph /  20.9km/h 45% 0in /  0.0mm 445 W/m2
16:43 77.5 °F /  25.3 °C 54.5 °F /  12.5 °C 30.1in /  1020.3hPa ESE 2.9mph /  4.7km/h 6mph /  9.7km/h 45% 0in /  0.0mm 431 W/m2
17:01 78.1 °F /  25.6 °C 53.8 °F /  12.1 °C 30.1in /  1020.0hPa NE 2.9mph /  4.7km/h 6mph /  9.7km/h 43% 0in /  0.0mm 394 W/m2
17:06 78.1 °F /  25.6 °C 53.8 °F /  12.1 °C 30.1in /  1020.0hPa ESE 2.9mph /  4.7km/h 8mph /  12.9km/h 43% 0in /  0.0mm 373 W/m2
17:11 77.9 °F /  25.5 °C 53.6 °F /  12 °C 30.1in /  1020.0hPa East 2.9mph /  4.7km/h 6mph /  9.7km/h 43% 0in /  0.0mm 376 W/m2
17:21 77.4 °F /  25.2 °C 53.8 °F /  12.1 °C 30.1in /  1020.0hPa NNE 0.9mph /  1.4km/h 6mph /  9.7km/h 44% 0in /  0.0mm 343 W/m2
17:26 77.7 °F /  25.4 °C 53.4 °F /  11.9 °C 30.1in /  1020.0hPa WNW 2mph /  3.2km/h 3mph /  4.8km/h 43% 0in /  0.0mm 329 W/m2
17:31 77.7 °F /  25.4 °C 54.1 °F /  12.3 °C 30.1in /  1020.0hPa East 4mph /  6.4km/h 5mph /  8km/h 44% 0in /  0.0mm 318 W/m2
17:36 77.5 °F /  25.3 °C 53.2 °F /  11.8 °C 30.1in /  1020.0hPa ESE 2mph /  3.2km/h 9mph /  14.5km/h 43% 0in /  0.0mm 279 W/m2
17:41 77.4 °F /  25.2 °C 53.8 °F /  12.1 °C 30.1in /  1020.0hPa West 4mph /  6.4km/h 9mph /  14.5km/h 44% 0in /  0.0mm 278 W/m2
17:46 77 °F /  25 °C 53.4 °F /  11.9 °C 30.1in /  1020.0hPa ESE 2.9mph /  4.7km/h 7mph /  11.3km/h 44% 0in /  0.0mm 276 W/m2
17:51 76.6 °F /  24.8 °C 53.8 °F /  12.1 °C 30.1in /  1020.0hPa NE 2.9mph /  4.7km/h 9mph /  14.5km/h 45% 0in /  0.0mm 178 W/m2
17:56 76.5 °F /  24.7 °C 53.6 °F /  12 °C 30.1in /  1020.0hPa SE 0.9mph /  1.4km/h 5mph /  8km/h 45% 0in /  0.0mm 239 W/m2
18:01 76.5 °F /  24.7 °C 54.1 °F /  12.3 °C 30.1in /  1020.0hPa SE 2.9mph /  4.7km/h 8mph /  12.9km/h 46% 0in /  0.0mm 104 W/m2
18:06 76.5 °F /  24.7 °C 54.7 °F /  12.6 °C 30.1in /  1020.0hPa NE 4mph /  6.4km/h 12mph /  19.3km/h 47% 0in /  0.0mm 214 W/m2
18:11 76.3 °F /  24.6 °C 55.8 °F /  13.2 °C 30.1in /  1020.0hPa East 2mph /  3.2km/h 9mph /  14.5km/h 49% 0in /  0.0mm 202 W/m2
18:16 76.1 °F /  24.5 °C 56.7 °F /  13.7 °C 30.1in /  1020.0hPa ESE 2.9mph /  4.7km/h 3mph /  4.8km/h 51% 0in /  0.0mm 186 W/m2
18:21 75.7 °F /  24.3 °C 56.3 °F /  13.5 °C 30.1in /  1020.0hPa ESE 0.9mph /  1.4km/h 6mph /  9.7km/h 51% 0in /  0.0mm 169 W/m2
18:26 75.6 °F /  24.2 °C 56.1 °F /  13.4 °C 30.1in /  1020.0hPa East 0.9mph /  1.4km/h 4mph /  6.4km/h 51% 0in /  0.0mm 155 W/m2
18:31 75 °F /  23.9 °C 55.6 °F /  13.1 °C 30.1in /  1020.0hPa East 2mph /  3.2km/h 4mph /  6.4km/h 51% 0in /  0.0mm 141 W/m2
18:36 74.8 °F /  23.8 °C 56.1 °F /  13.4 °C 30.1in /  1020.0hPa Calm   5mph /  8km/h 52% 0in /  0.0mm 123 W/m2
18:41 74.5 °F /  23.6 °C 55.8 °F /  13.2 °C 30.1in /  1020.0hPa ENE 0.9mph /  1.4km/h 5mph /  8km/h 52% 0in /  0.0mm 111 W/m2
18:46 74.3 °F /  23.5 °C 56.1 °F /  13.4 °C 30.1in /  1020.0hPa ENE 0.9mph /  1.4km/h 2mph /  3.2km/h 53% 0in /  0.0mm 95 W/m2
18:51 73.9 °F /  23.3 °C 55.8 °F /  13.2 °C 30.1in /  1020.0hPa East 2mph /  3.2km/h 3mph /  4.8km/h 53% 0in /  0.0mm 42 W/m2
18:56 73.6 °F /  23.1 °C 55.9 °F /  13.3 °C 30.1in /  1020.0hPa East 0.9mph /  1.4km/h 4mph /  6.4km/h 54% 0in /  0.0mm 39 W/m2
19:01 73 °F /  22.8 °C 55.4 °F /  13 °C 30.1in /  1020.0hPa East 2mph /  3.2km/h 6mph /  9.7km/h 54% 0in /  0.0mm 35 W/m2
19:06 72.5 °F /  22.5 °C 55.4 °F /  13 °C 30.1in /  1020.0hPa East 0.9mph /  1.4km/h 4mph /  6.4km/h 55% 0in /  0.0mm 32 W/m2
19:11 72.1 °F /  22.3 °C 55 °F /  12.8 °C 30.1in /  1020.0hPa East 0.9mph /  1.4km/h 5mph /  8km/h 55% 0in /  0.0mm 28 W/m2
19:16 71.8 °F /  22.1 °C 55.2 °F /  12.9 °C 30.1in /  1020.3hPa ENE 0.9mph /  1.4km/h 3mph /  4.8km/h 56% 0in /  0.0mm 25 W/m2
19:21 71.4 °F /  21.9 °C 54.9 °F /  12.7 °C 30.1in /  1020.3hPa NE 2.9mph /  4.7km/h 3mph /  4.8km/h 56% 0in /  0.0mm 21 W/m2
19:26 71.2 °F /  21.8 °C 55.2 °F /  12.9 °C 30.1in /  1020.3hPa ENE 2.9mph /  4.7km/h 4mph /  6.4km/h 57% 0in /  0.0mm 16 W/m2
19:31 71.1 °F /  21.7 °C 55.6 °F /  13.1 °C 30.1in /  1020.3hPa NE 0.9mph /  1.4km/h 2mph /  3.2km/h 58% 0in /  0.0mm 12 W/m2
19:36 70.5 °F /  21.4 °C 55 °F /  12.8 °C 30.1in /  1020.3hPa East 4mph /  6.4km/h 8mph /  12.9km/h 58% 0in /  0.0mm 9 W/m2
19:41 70.3 °F /  21.3 °C 55.4 °F /  13 °C 30.1in /  1020.3hPa ENE 2mph /  3.2km/h 4mph /  6.4km/h 59% 0in /  0.0mm 5 W/m2
19:47 70 °F /  21.1 °C 55 °F /  12.8 °C 30.1in /  1020.3hPa East 2mph /  3.2km/h 3mph /  4.8km/h 59% 0in /  0.0mm 0 W/m2
19:52 69.6 °F /  20.9 °C 55 °F /  12.8 °C 30.1in /  1020.7hPa East 0.9mph /  1.4km/h 2mph /  3.2km/h 60% 0in /  0.0mm 0 W/m2
19:57 69.3 °F /  20.7 °C 55.2 °F /  12.9 °C 30.1in /  1020.7hPa ENE 0.9mph /  1.4km/h 3mph /  4.8km/h 61% 0in /  0.0mm 0 W/m2
20:02 69.1 °F /  20.6 °C 54.7 °F /  12.6 °C 30.1in /  1020.7hPa ENE 2mph /  3.2km/h 3mph /  4.8km/h 60% 0in /  0.0mm 0 W/m2
20:07 68.9 °F /  20.5 °C 54.5 °F /  12.5 °C 30.1in /  1020.7hPa ENE 2mph /  3.2km/h 6mph /  9.7km/h 60% 0in /  0.0mm 0 W/m2
20:12 68.7 °F /  20.4 °C 54.3 °F /  12.4 °C 30.1in /  1020.7hPa SE 0.9mph /  1.4km/h 4mph /  6.4km/h 60% 0in /  0.0mm 0 W/m2
20:17 68.5 °F /  20.3 °C 54.1 °F /  12.3 °C 30.1in /  1020.7hPa NE 0.9mph /  1.4km/h 5mph /  8km/h 60% 0in /  0.0mm 0 W/m2
20:22 68.5 °F /  20.3 °C 54.5 °F /  12.5 °C 30.2in /  1021.0hPa East 0.9mph /  1.4km/h 2mph /  3.2km/h 61% 0in /  0.0mm 0 W/m2
20:27 68.2 °F /  20.1 °C 54.1 °F /  12.3 °C 30.2in /  1021.0hPa SSE 0.9mph /  1.4km/h 5mph /  8km/h 61% 0in /  0.0mm 0 W/m2
20:32 67.8 °F /  19.9 °C 54 °F /  12.2 °C 30.2in /  1021.0hPa East 2.9mph /  4.7km/h 3mph /  4.8km/h 61% 0in /  0.0mm 0 W/m2
20:37 67.5 °F /  19.7 °C 53.6 °F /  12 °C 30.2in /  1021.0hPa East 0.9mph /  1.4km/h 4mph /  6.4km/h 61% 0in /  0.0mm 0 W/m2
20:42 67.5 °F /  19.7 °C 53.6 °F /  12 °C 30.2in /  1021.0hPa WNW 0.9mph /  1.4km/h 4mph /  6.4km/h 61% 0in /  0.0mm 0 W/m2
20:47 67.3 °F /  19.6 °C 53.4 °F /  11.9 °C 30.2in /  1021.0hPa Calm   4mph /  6.4km/h 61% 0in /  0.0mm 0 W/m2
20:52 66.9 °F /  19.4 °C 53.4 °F /  11.9 °C 30.2in /  1021.3hPa Calm   3mph /  4.8km/h 62% 0in /  0.0mm 0 W/m2
20:57 66.7 °F /  19.3 °C 53.2 °F /  11.8 °C 30.2in /  1021.3hPa East 0.9mph /  1.4km/h 4mph /  6.4km/h 62% 0in /  0.0mm 0 W/m2
21:02 66.7 °F /  19.3 °C 53.2 °F /  11.8 °C 30.2in /  1021.3hPa East 2mph /  3.2km/h 9mph /  14.5km/h 62% 0in /  0.0mm 0 W/m2
21:07 66.6 °F /  19.2 °C 53.1 °F /  11.7 °C 30.2in /  1021.3hPa NNE 0.9mph /  1.4km/h 4mph /  6.4km/h 62% 0in /  0.0mm 0 W/m2
21:12 66.4 °F /  19.1 °C 53.4 °F /  11.9 °C 30.2in /  1021.3hPa Calm   9mph /  14.5km/h 63% 0in /  0.0mm 0 W/m2
21:17 66.2 °F /  19 °C 52 °F /  11.1 °C 30.2in /  1021.3hPa NNE 4mph /  6.4km/h 11mph /  17.7km/h 60% 0in /  0.0mm 0 W/m2
21:22 66.4 °F /  19.1 °C 51.1 °F /  10.6 °C 30.2in /  1021.3hPa ENE 4.9mph /  7.9km/h 8mph /  12.9km/h 58% 0in /  0.0mm 0 W/m2
21:27 66.4 °F /  19.1 °C 50.7 °F /  10.4 °C 30.2in /  1021.3hPa NNE 2.9mph /  4.7km/h 9mph /  14.5km/h 57% 0in /  0.0mm 0 W/m2
21:32 66.4 °F /  19.1 °C 50.7 °F /  10.4 °C 30.2in /  1021.3hPa North 2mph /  3.2km/h 4mph /  6.4km/h 57% 0in /  0.0mm 0 W/m2
21:37 66.4 °F /  19.1 °C 50.7 °F /  10.4 °C 30.2in /  1021.3hPa ESE 2.9mph /  4.7km/h 7mph /  11.3km/h 57% 0in /  0.0mm 0 W/m2
21:42 66.2 °F /  19 °C 50.5 °F /  10.3 °C 30.2in /  1021.3hPa East 6.9mph /  11.1km/h 12mph /  19.3km/h 57% 0in /  0.0mm 0 W/m2
21:47 66 °F /  18.9 °C 50.4 °F /  10.2 °C 30.2in /  1021.3hPa SE 0.9mph /  1.4km/h 8mph /  12.9km/h 57% 0in /  0.0mm 0 W/m2
21:52 65.8 °F /  18.8 °C 50.2 °F /  10.1 °C 30.2in /  1021.3hPa Calm   9mph /  14.5km/h 57% 0in /  0.0mm 0 W/m2
21:57 65.8 °F /  18.8 °C 50.2 °F /  10.1 °C 30.2in /  1021.3hPa ESE 2mph /  3.2km/h 3mph /  4.8km/h 57% 0in /  0.0mm 0 W/m2
22:02 65.7 °F /  18.7 °C 50.5 °F /  10.3 °C 30.2in /  1021.3hPa East 2mph /  3.2km/h 9mph /  14.5km/h 58% 0in /  0.0mm 0 W/m2
22:07 65.5 °F /  18.6 °C 50.4 °F /  10.2 °C 30.2in /  1021.3hPa East 2mph /  3.2km/h 6mph /  9.7km/h 58% 0in /  0.0mm 0 W/m2
22:12 65.1 °F /  18.4 °C 50 °F /  10 °C 30.2in /  1021.3hPa SE 2mph /  3.2km/h 7mph /  11.3km/h 58% 0in /  0.0mm 0 W/m2
22:17 64.9 °F /  18.3 °C 49.3 °F /  9.6 °C 30.2in /  1021.7hPa East 2mph /  3.2km/h 4mph /  6.4km/h 57% 0in /  0.0mm 0 W/m2
22:22 64.9 °F /  18.3 °C 49.3 °F /  9.6 °C 30.2in /  1021.7hPa ENE 2mph /  3.2km/h 7mph /  11.3km/h 57% 0in /  0.0mm 0 W/m2
22:27 64.9 °F /  18.3 °C 48.9 °F /  9.4 °C 30.2in /  1021.7hPa ESE 2mph /  3.2km/h 7mph /  11.3km/h 56% 0in /  0.0mm 0 W/m2
22:32 64.8 °F /  18.2 °C 49.1 °F /  9.5 °C 30.2in /  1021.7hPa East 2mph /  3.2km/h 8mph /  12.9km/h 57% 0in /  0.0mm 0 W/m2
22:37 64.6 °F /  18.1 °C 48.9 °F /  9.4 °C 30.2in /  1021.7hPa ESE 4mph /  6.4km/h 8mph /  12.9km/h 57% 0in /  0.0mm 0 W/m2
22:42 64.6 °F /  18.1 °C 48.9 °F /  9.4 °C 30.2in /  1021.7hPa SE 2mph /  3.2km/h 5mph /  8km/h 57% 0in /  0.0mm 0 W/m2
22:47 64.2 °F /  17.9 °C 49.1 °F /  9.5 °C 30.2in /  1021.7hPa ESE 4mph /  6.4km/h 4mph /  6.4km/h 58% 0in /  0.0mm 0 W/m2
22:52 64 °F /  17.8 °C 48.6 °F /  9.2 °C 30.2in /  1021.7hPa East 2mph /  3.2km/h 4mph /  6.4km/h 57% 0in /  0.0mm 0 W/m2
22:57 64 °F /  17.8 °C 48 °F /  8.9 °C 30.2in /  1021.7hPa SE 2.9mph /  4.7km/h 9mph /  14.5km/h 56% 0in /  0.0mm 0 W/m2
23:02 63.9 °F /  17.7 °C 47.8 °F /  8.8 °C 30.2in /  1021.7hPa ESE 2mph /  3.2km/h 4mph /  6.4km/h 56% 0in /  0.0mm 0 W/m2
23:07 63.7 °F /  17.6 °C 47.7 °F /  8.7 °C 30.2in /  1021.7hPa East 2mph /  3.2km/h 9mph /  14.5km/h 56% 0in /  0.0mm 0 W/m2
23:12 63.5 °F /  17.5 °C 47.5 °F /  8.6 °C 30.2in /  1021.7hPa SSE 2.9mph /  4.7km/h 8mph /  12.9km/h 56% 0in /  0.0mm 0 W/m2
23:17 63.3 °F /  17.4 °C 46.9 °F /  8.3 °C 30.2in /  1021.7hPa Calm   4mph /  6.4km/h 55% 0in /  0.0mm 0 W/m2
23:23 63.3 °F /  17.4 °C 47.3 °F /  8.5 °C 30.2in /  1021.7hPa NE 2.9mph /  4.7km/h 6mph /  9.7km/h 56% 0in /  0.0mm 0 W/m2
23:28 63.1 °F /  17.3 °C 46.8 °F /  8.2 °C 30.2in /  1021.7hPa East 0.9mph /  1.4km/h 5mph /  8km/h 55% 0in /  0.0mm 0 W/m2
23:33 63 °F /  17.2 °C 46.9 °F /  8.3 °C 30.2in /  1021.7hPa SE 0.9mph /  1.4km/h 4mph /  6.4km/h 56% 0in /  0.0mm 0 W/m2
23:38 62.8 °F /  17.1 °C 46.9 °F /  8.3 °C 30.2in /  1021.3hPa ENE 2mph /  3.2km/h 4mph /  6.4km/h 56% 0in /  0.0mm 0 W/m2
23:43 62.6 °F /  17 °C 46.8 °F /  8.2 °C 30.2in /  1021.3hPa ENE 0.9mph /  1.4km/h 3mph /  4.8km/h 56% 0in /  0.0mm 0 W/m2
23:48 62.2 °F /  16.8 °C 46.8 °F /  8.2 °C 30.2in /  1021.3hPa Calm   2mph /  3.2km/h 57% 0in /  0.0mm 0 W/m2
23:53 62.1 °F /  16.7 °C 46.6 °F /  8.1 °C 30.2in /  1021.3hPa Calm   2mph /  3.2km/h 57% 0in /  0.0mm 0 W/m2
23:58 61.9 °F /  16.6 °C 46.9 °F /  8.3 °C 30.2in /  1021.3hPa ENE 0.9mph /  1.4km/h 2mph /  3.2km/h 58% 0in /  0.0mm 0 W/m2
Juneau County Weather
Compliments of Weather Underground - 4 mb